Oatsville, Indiana
Current Conditions -  °F | °C
As of 9:55 AM on Thursday 30 Oct 2014 (Local Time) from KDCY Reporting Station
Clear Clear  
Wind Chill: 47°   Ceiling: Unl
Heat Index: 47°   Visibility: 10mi
Dew Point: 38°   Wind: 0mph
Humidity: 72%   Direction: NA
Pressure: 30.18"   Gusts: NA
Location:  38.4723°N, 87.3105°W
Report Text: KDCY 301455Z AUTO 00000KT 10SM CLR 08/03 A3018 RMK AO2 T00810034
Loading
Personal Weather Stations






























Interactive Weather Map
Tropical Storm Tracking
New forecast layout! Learn more

10-Day Weather Forecast

Advertisements
Track Severe Weather on mobile